sensor_id;sensor_type;location;lat;lon;timestamp;P1;durP1;ratioP1;P2;durP2;ratioP2
11960;SDS011;6040;49.358;11.140;2022-08-19T00:00:47;20.20;;;17.60;;
11960;SDS011;6040;49.358;11.140;2022-08-19T00:03:15;18.73;;;16.80;;
11960;SDS011;6040;49.358;11.140;2022-08-19T00:05:42;16.87;;;15.37;;
11960;SDS011;6040;49.358;11.140;2022-08-19T00:08:09;16.40;;;14.90;;
11960;SDS011;6040;49.358;11.140;2022-08-19T00:10:36;17.73;;;16.00;;
11960;SDS011;6040;49.358;11.140;2022-08-19T00:13:03;17.53;;;15.83;;
11960;SDS011;6040;49.358;11.140;2022-08-19T00:15:30;15.97;;;14.43;;
11960;SDS011;6040;49.358;11.140;2022-08-19T00:17:58;17.17;;;15.57;;
11960;SDS011;6040;49.358;11.140;2022-08-19T00:20:25;16.87;;;15.27;;
11960;SDS011;6040;49.358;11.140;2022-08-19T00:22:52;16.77;;;15.17;;
11960;SDS011;6040;49.358;11.140;2022-08-19T00:25:19;16.63;;;15.10;;
11960;SDS011;6040;49.358;11.140;2022-08-19T00:27:46;16.13;;;14.70;;
11960;SDS011;6040;49.358;11.140;2022-08-19T00:30:13;18.37;;;15.37;;
11960;SDS011;6040;49.358;11.140;2022-08-19T00:32:40;17.43;;;15.83;;
11960;SDS011;6040;49.358;11.140;2022-08-19T00:35:09;17.43;;;15.63;;
11960;SDS011;6040;49.358;11.140;2022-08-19T00:37:37;18.13;;;16.33;;
11960;SDS011;6040;49.358;11.140;2022-08-19T00:40:08;18.20;;;16.27;;
11960;SDS011;6040;49.358;11.140;2022-08-19T00:42:37;17.73;;;16.07;;
11960;SDS011;6040;49.358;11.140;2022-08-19T00:45:05;18.30;;;16.60;;
11960;SDS011;6040;49.358;11.140;2022-08-19T00:47:37;18.07;;;16.47;;
11960;SDS011;6040;49.358;11.140;2022-08-19T00:50:05;18.03;;;16.23;;
11960;SDS011;6040;49.358;11.140;2022-08-19T00:52:37;17.43;;;15.87;;
11960;SDS011;6040;49.358;11.140;2022-08-19T00:55:10;17.57;;;15.83;;
11960;SDS011;6040;49.358;11.140;2022-08-19T00:57:41;17.23;;;15.17;;
11960;SDS011;6040;49.358;11.140;2022-08-19T01:00:11;16.80;;;15.03;;
11960;SDS011;6040;49.358;11.140;2022-08-19T01:02:40;15.97;;;14.47;;
11960;SDS011;6040;49.358;11.140;2022-08-19T01:05:09;16.87;;;15.17;;
11960;SDS011;6040;49.358;11.140;2022-08-19T01:07:41;16.13;;;14.53;;
11960;SDS011;6040;49.358;11.140;2022-08-19T01:10:10;17.37;;;15.57;;
11960;SDS011;6040;49.358;11.140;2022-08-19T01:12:39;17.13;;;15.50;;
11960;SDS011;6040;49.358;11.140;2022-08-19T01:15:07;16.73;;;15.07;;
11960;SDS011;6040;49.358;11.140;2022-08-19T01:17:38;16.77;;;14.90;;
11960;SDS011;6040;49.358;11.140;2022-08-19T01:20:07;17.67;;;14.33;;
11960;SDS011;6040;49.358;11.140;2022-08-19T01:22:39;16.30;;;14.60;;
11960;SDS011;6040;49.358;11.140;2022-08-19T01:25:10;14.93;;;13.53;;
11960;SDS011;6040;49.358;11.140;2022-08-19T01:27:38;14.87;;;13.57;;
11960;SDS011;6040;49.358;11.140;2022-08-19T01:30:06;15.13;;;13.70;;
11960;SDS011;6040;49.358;11.140;2022-08-19T01:32:34;14.27;;;12.93;;
11960;SDS011;6040;49.358;11.140;2022-08-19T01:35:01;16.03;;;14.33;;
11960;SDS011;6040;49.358;11.140;2022-08-19T01:37:29;15.93;;;14.43;;
11960;SDS011;6040;49.358;11.140;2022-08-19T01:39:58;15.63;;;14.10;;
11960;SDS011;6040;49.358;11.140;2022-08-19T01:42:25;14.53;;;13.10;;
11960;SDS011;6040;49.358;11.140;2022-08-19T01:44:52;15.63;;;14.00;;
11960;SDS011;6040;49.358;11.140;2022-08-19T01:47:18;15.50;;;13.90;;
11960;SDS011;6040;49.358;11.140;2022-08-19T01:49:45;14.77;;;13.37;;
11960;SDS011;6040;49.358;11.140;2022-08-19T01:52:12;15.03;;;13.53;;
11960;SDS011;6040;49.358;11.140;2022-08-19T01:54:39;15.77;;;14.33;;
11960;SDS011;6040;49.358;11.140;2022-08-19T01:57:08;15.60;;;14.10;;
11960;SDS011;6040;49.358;11.140;2022-08-19T01:59:38;15.23;;;13.73;;
11960;SDS011;6040;49.358;11.140;2022-08-19T02:02:07;14.37;;;12.87;;
11960;SDS011;6040;49.358;11.140;2022-08-19T02:04:34;15.60;;;14.10;;
11960;SDS011;6040;49.358;11.140;2022-08-19T02:07:02;14.50;;;13.20;;
11960;SDS011;6040;49.358;11.140;2022-08-19T02:09:30;14.60;;;13.20;;
11960;SDS011;6040;49.358;11.140;2022-08-19T02:11:57;16.47;;;14.90;;
11960;SDS011;6040;49.358;11.140;2022-08-19T02:14:25;17.23;;;15.50;;
11960;SDS011;6040;49.358;11.140;2022-08-19T02:16:52;15.97;;;14.50;;
11960;SDS011;6040;49.358;11.140;2022-08-19T02:19:19;14.97;;;13.57;;
11960;SDS011;6040;49.358;11.140;2022-08-19T02:21:45;17.23;;;14.93;;
11960;SDS011;6040;49.358;11.140;2022-08-19T02:24:12;15.90;;;14.27;;
11960;SDS011;6040;49.358;11.140;2022-08-19T02:26:39;15.80;;;14.30;;
11960;SDS011;6040;49.358;11.140;2022-08-19T02:29:06;16.37;;;14.70;;
11960;SDS011;6040;49.358;11.140;2022-08-19T02:31:34;15.90;;;14.40;;
11960;SDS011;6040;49.358;11.140;2022-08-19T02:34:01;15.70;;;14.17;;
11960;SDS011;6040;49.358;11.140;2022-08-19T02:36:28;15.03;;;13.60;;
11960;SDS011;6040;49.358;11.140;2022-08-19T02:38:56;15.90;;;14.20;;
11960;SDS011;6040;49.358;11.140;2022-08-19T02:41:22;16.97;;;15.40;;
11960;SDS011;6040;49.358;11.140;2022-08-19T02:43:51;15.53;;;13.93;;
11960;SDS011;6040;49.358;11.140;2022-08-19T02:46:20;16.27;;;14.67;;
11960;SDS011;6040;49.358;11.140;2022-08-19T02:48:51;16.10;;;14.57;;
11960;SDS011;6040;49.358;11.140;2022-08-19T02:51:21;16.13;;;14.43;;
11960;SDS011;6040;49.358;11.140;2022-08-19T02:53:49;14.43;;;13.13;;
11960;SDS011;6040;49.358;11.140;2022-08-19T02:56:16;15.70;;;14.20;;
11960;SDS011;6040;49.358;11.140;2022-08-19T02:58:44;16.90;;;15.17;;
11960;SDS011;6040;49.358;11.140;2022-08-19T03:01:11;16.53;;;14.97;;
11960;SDS011;6040;49.358;11.140;2022-08-19T03:03:45;16.43;;;14.83;;
11960;SDS011;6040;49.358;11.140;2022-08-19T03:06:14;17.03;;;14.90;;
11960;SDS011;6040;49.358;11.140;2022-08-19T03:08:42;15.83;;;14.33;;
11960;SDS011;6040;49.358;11.140;2022-08-19T03:11:14;16.50;;;14.87;;
11960;SDS011;6040;49.358;11.140;2022-08-19T03:13:42;16.90;;;15.20;;
11960;SDS011;6040;49.358;11.140;2022-08-19T03:16:09;16.90;;;15.07;;
11960;SDS011;6040;49.358;11.140;2022-08-19T03:18:37;16.83;;;15.13;;
11960;SDS011;6040;49.358;11.140;2022-08-19T03:21:05;20.60;;;15.97;;
11960;SDS011;6040;49.358;11.140;2022-08-19T03:23:34;16.67;;;14.97;;
11960;SDS011;6040;49.358;11.140;2022-08-19T03:26:03;17.23;;;15.53;;
11960;SDS011;6040;49.358;11.140;2022-08-19T03:28:31;17.13;;;15.27;;
11960;SDS011;6040;49.358;11.140;2022-08-19T03:31:00;18.20;;;15.87;;
11960;SDS011;6040;49.358;11.140;2022-08-19T03:33:30;16.23;;;14.70;;
11960;SDS011;6040;49.358;11.140;2022-08-19T03:36:03;16.53;;;15.00;;
11960;SDS011;6040;49.358;11.140;2022-08-19T03:38:35;16.97;;;15.40;;
11960;SDS011;6040;49.358;11.140;2022-08-19T03:41:04;16.43;;;14.87;;
11960;SDS011;6040;49.358;11.140;2022-08-19T03:43:33;16.57;;;14.97;;
11960;SDS011;6040;49.358;11.140;2022-08-19T03:46:01;17.17;;;15.33;;
11960;SDS011;6040;49.358;11.140;2022-08-19T03:48:31;19.00;;;16.77;;
11960;SDS011;6040;49.358;11.140;2022-08-19T03:50:58;18.73;;;16.93;;
11960;SDS011;6040;49.358;11.140;2022-08-19T03:53:26;19.93;;;17.93;;
11960;SDS011;6040;49.358;11.140;2022-08-19T03:55:55;19.27;;;17.37;;
11960;SDS011;6040;49.358;11.140;2022-08-19T03:58:23;18.63;;;16.80;;
11960;SDS011;6040;49.358;11.140;2022-08-19T04:00:50;18.93;;;17.03;;
11960;SDS011;6040;49.358;11.140;2022-08-19T04:03:16;19.83;;;17.83;;
11960;SDS011;6040;49.358;11.140;2022-08-19T04:05:45;17.83;;;16.10;;
11960;SDS011;6040;49.358;11.140;2022-08-19T04:08:13;18.10;;;16.30;;
11960;SDS011;6040;49.358;11.140;2022-08-19T04:10:45;19.80;;;16.33;;
11960;SDS011;6040;49.358;11.140;2022-08-19T04:13:15;18.87;;;16.97;;
11960;SDS011;6040;49.358;11.140;2022-08-19T04:15:43;19.33;;;17.37;;
11960;SDS011;6040;49.358;11.140;2022-08-19T04:18:11;19.37;;;17.37;;
11960;SDS011;6040;49.358;11.140;2022-08-19T04:20:40;19.20;;;17.20;;
11960;SDS011;6040;49.358;11.140;2022-08-19T04:23:08;19.47;;;17.47;;
11960;SDS011;6040;49.358;11.140;2022-08-19T04:25:36;19.00;;;17.00;;
11960;SDS011;6040;49.358;11.140;2022-08-19T04:28:03;18.57;;;16.67;;
11960;SDS011;6040;49.358;11.140;2022-08-19T04:30:36;20.10;;;18.13;;
11960;SDS011;6040;49.358;11.140;2022-08-19T04:33:04;21.50;;;17.83;;
11960;SDS011;6040;49.358;11.140;2022-08-19T04:35:34;19.17;;;17.20;;
11960;SDS011;6040;49.358;11.140;2022-08-19T04:38:02;20.13;;;18.03;;
11960;SDS011;6040;49.358;11.140;2022-08-19T04:40:29;20.40;;;18.10;;
11960;SDS011;6040;49.358;11.140;2022-08-19T04:43:13;19.83;;;17.83;;
11960;SDS011;6040;49.358;11.140;2022-08-19T04:45:42;21.27;;;19.17;;
11960;SDS011;6040;49.358;11.140;2022-08-19T04:48:09;21.80;;;19.50;;
11960;SDS011;6040;49.358;11.140;2022-08-19T04:50:39;21.27;;;19.10;;
11960;SDS011;6040;49.358;11.140;2022-08-19T04:53:06;19.60;;;17.53;;
11960;SDS011;6040;49.358;11.140;2022-08-19T04:55:33;20.90;;;18.70;;
11960;SDS011;6040;49.358;11.140;2022-08-19T04:58:01;21.30;;;19.17;;
11960;SDS011;6040;49.358;11.140;2022-08-19T05:00:28;20.53;;;18.63;;
11960;SDS011;6040;49.358;11.140;2022-08-19T05:02:57;20.47;;;18.47;;
11960;SDS011;6040;49.358;11.140;2022-08-19T05:05:23;22.10;;;19.77;;
11960;SDS011;6040;49.358;11.140;2022-08-19T05:07:50;21.13;;;18.93;;
11960;SDS011;6040;49.358;11.140;2022-08-19T05:10:17;20.43;;;18.20;;
11960;SDS011;6040;49.358;11.140;2022-08-19T05:12:45;21.33;;;19.10;;
11960;SDS011;6040;49.358;11.140;2022-08-19T05:15:12;20.83;;;18.73;;
11960;SDS011;6040;49.358;11.140;2022-08-19T05:17:39;22.20;;;19.90;;
11960;SDS011;6040;49.358;11.140;2022-08-19T05:20:28;23.37;;;20.87;;
11960;SDS011;6040;49.358;11.140;2022-08-19T05:23:12;21.50;;;19.30;;
11960;SDS011;6040;49.358;11.140;2022-08-19T05:25:40;23.70;;;21.30;;
11960;SDS011;6040;49.358;11.140;2022-08-19T05:28:08;22.57;;;20.27;;
11960;SDS011;6040;49.358;11.140;2022-08-19T05:30:35;23.87;;;21.47;;
11960;SDS011;6040;49.358;11.140;2022-08-19T05:33:01;23.50;;;20.93;;
11960;SDS011;6040;49.358;11.140;2022-08-19T05:35:30;23.27;;;20.13;;
11960;SDS011;6040;49.358;11.140;2022-08-19T05:37:57;21.47;;;19.23;;
11960;SDS011;6040;49.358;11.140;2022-08-19T05:40:23;20.43;;;18.43;;
11960;SDS011;6040;49.358;11.140;2022-08-19T05:42:50;21.40;;;19.30;;
11960;SDS011;6040;49.358;11.140;2022-08-19T05:45:18;21.20;;;18.87;;
11960;SDS011;6040;49.358;11.140;2022-08-19T05:47:46;20.23;;;18.17;;
11960;SDS011;6040;49.358;11.140;2022-08-19T05:50:13;19.27;;;17.27;;
11960;SDS011;6040;49.358;11.140;2022-08-19T05:52:43;21.87;;;18.00;;
11960;SDS011;6040;49.358;11.140;2022-08-19T05:55:11;19.90;;;17.87;;
11960;SDS011;6040;49.358;11.140;2022-08-19T05:57:38;19.47;;;17.50;;
11960;SDS011;6040;49.358;11.140;2022-08-19T06:00:05;19.67;;;17.67;;
11960;SDS011;6040;49.358;11.140;2022-08-19T06:02:35;21.27;;;18.10;;
11960;SDS011;6040;49.358;11.140;2022-08-19T06:05:02;17.67;;;16.03;;
11960;SDS011;6040;49.358;11.140;2022-08-19T06:07:31;18.57;;;16.30;;
11960;SDS011;6040;49.358;11.140;2022-08-19T06:10:00;19.60;;;17.70;;
11960;SDS011;6040;49.358;11.140;2022-08-19T06:12:27;19.10;;;17.10;;
11960;SDS011;6040;49.358;11.140;2022-08-19T06:14:58;18.73;;;16.83;;
11960;SDS011;6040;49.358;11.140;2022-08-19T06:17:25;18.17;;;16.37;;
11960;SDS011;6040;49.358;11.140;2022-08-19T06:19:52;18.97;;;16.63;;
11960;SDS011;6040;49.358;11.140;2022-08-19T06:22:19;16.97;;;15.30;;
11960;SDS011;6040;49.358;11.140;2022-08-19T06:24:46;16.83;;;15.20;;
11960;SDS011;6040;49.358;11.140;2022-08-19T06:27:18;16.93;;;15.40;;
11960;SDS011;6040;49.358;11.140;2022-08-19T06:29:45;19.30;;;16.23;;
11960;SDS011;6040;49.358;11.140;2022-08-19T06:32:13;16.57;;;14.97;;
11960;SDS011;6040;49.358;11.140;2022-08-19T06:34:43;16.50;;;14.80;;
11960;SDS011;6040;49.358;11.140;2022-08-19T06:37:10;16.03;;;14.43;;
11960;SDS011;6040;49.358;11.140;2022-08-19T06:39:38;15.53;;;13.87;;
11960;SDS011;6040;49.358;11.140;2022-08-19T06:42:06;15.50;;;13.90;;
11960;SDS011;6040;49.358;11.140;2022-08-19T06:44:38;14.20;;;12.90;;
11960;SDS011;6040;49.358;11.140;2022-08-19T06:47:07;13.37;;;12.10;;
11960;SDS011;6040;49.358;11.140;2022-08-19T06:49:35;16.13;;;13.30;;
11960;SDS011;6040;49.358;11.140;2022-08-19T06:52:03;17.73;;;15.23;;
11960;SDS011;6040;49.358;11.140;2022-08-19T06:54:30;17.23;;;15.63;;
11960;SDS011;6040;49.358;11.140;2022-08-19T06:56:59;16.63;;;15.00;;
11960;SDS011;6040;49.358;11.140;2022-08-19T06:59:27;16.00;;;14.40;;
11960;SDS011;6040;49.358;11.140;2022-08-19T07:01:59;14.80;;;13.30;;
11960;SDS011;6040;49.358;11.140;2022-08-19T07:04:30;15.63;;;14.03;;
11960;SDS011;6040;49.358;11.140;2022-08-19T07:06:59;15.80;;;14.40;;
11960;SDS011;6040;49.358;11.140;2022-08-19T07:09:27;15.93;;;14.23;;
11960;SDS011;6040;49.358;11.140;2022-08-19T07:11:55;16.27;;;14.03;;
11960;SDS011;6040;49.358;11.140;2022-08-19T07:14:23;15.33;;;13.90;;
11960;SDS011;6040;49.358;11.140;2022-08-19T07:16:53;15.87;;;14.37;;
11960;SDS011;6040;49.358;11.140;2022-08-19T07:19:23;14.83;;;13.20;;
11960;SDS011;6040;49.358;11.140;2022-08-19T07:21:52;15.20;;;13.67;;
11960;SDS011;6040;49.358;11.140;2022-08-19T07:24:20;14.93;;;13.50;;
11960;SDS011;6040;49.358;11.140;2022-08-19T07:26:50;18.00;;;14.20;;
11960;SDS011;6040;49.358;11.140;2022-08-19T07:29:19;15.20;;;13.70;;
11960;SDS011;6040;49.358;11.140;2022-08-19T07:31:48;14.33;;;13.00;;
11960;SDS011;6040;49.358;11.140;2022-08-19T07:34:15;14.40;;;13.07;;
11960;SDS011;6040;49.358;11.140;2022-08-19T07:36:44;13.93;;;12.57;;
11960;SDS011;6040;49.358;11.140;2022-08-19T07:39:13;14.23;;;12.93;;
11960;SDS011;6040;49.358;11.140;2022-08-19T07:41:42;14.87;;;13.30;;
11960;SDS011;6040;49.358;11.140;2022-08-19T07:44:09;14.50;;;13.10;;
11960;SDS011;6040;49.358;11.140;2022-08-19T07:46:40;14.97;;;13.50;;
11960;SDS011;6040;49.358;11.140;2022-08-19T07:49:09;13.40;;;12.13;;
11960;SDS011;6040;49.358;11.140;2022-08-19T07:51:45;15.10;;;13.50;;
11960;SDS011;6040;49.358;11.140;2022-08-19T07:54:14;14.43;;;13.03;;
11960;SDS011;6040;49.358;11.140;2022-08-19T07:56:40;14.57;;;13.23;;
11960;SDS011;6040;49.358;11.140;2022-08-19T07:59:07;14.87;;;13.47;;
11960;SDS011;6040;49.358;11.140;2022-08-19T08:01:35;15.03;;;13.53;;
11960;SDS011;6040;49.358;11.140;2022-08-19T08:04:02;13.40;;;12.20;;
11960;SDS011;6040;49.358;11.140;2022-08-19T08:06:48;13.03;;;11.83;;
11960;SDS011;6040;49.358;11.140;2022-08-19T08:09:33;12.77;;;11.50;;
11960;SDS011;6040;49.358;11.140;2022-08-19T08:12:04;11.90;;;10.80;;
11960;SDS011;6040;49.358;11.140;2022-08-19T08:14:34;11.93;;;10.83;;
11960;SDS011;6040;49.358;11.140;2022-08-19T08:17:04;11.37;;;10.27;;
11960;SDS011;6040;49.358;11.140;2022-08-19T08:19:32;13.87;;;10.53;;
11960;SDS011;6040;49.358;11.140;2022-08-19T08:22:01;11.27;;;10.27;;
11960;SDS011;6040;49.358;11.140;2022-08-19T08:24:29;12.07;;;10.87;;
11960;SDS011;6040;49.358;11.140;2022-08-19T08:26:57;12.00;;;10.80;;
11960;SDS011;6040;49.358;11.140;2022-08-19T08:29:27;11.93;;;10.83;;
11960;SDS011;6040;49.358;11.140;2022-08-19T08:31:56;12.30;;;11.00;;
11960;SDS011;6040;49.358;11.140;2022-08-19T08:34:23;11.23;;;10.23;;
11960;SDS011;6040;49.358;11.140;2022-08-19T08:36:50;12.87;;;11.67;;
11960;SDS011;6040;49.358;11.140;2022-08-19T08:39:19;11.43;;;10.43;;
11960;SDS011;6040;49.358;11.140;2022-08-19T08:41:50;12.13;;;10.83;;
11960;SDS011;6040;49.358;11.140;2022-08-19T08:44:21;13.07;;;10.90;;
11960;SDS011;6040;49.358;11.140;2022-08-19T08:46:55;12.20;;;11.07;;
11960;SDS011;6040;49.358;11.140;2022-08-19T08:49:27;13.47;;;11.03;;
11960;SDS011;6040;49.358;11.140;2022-08-19T08:52:03;11.17;;;10.17;;
11960;SDS011;6040;49.358;11.140;2022-08-19T08:54:35;13.07;;;11.77;;
11960;SDS011;6040;49.358;11.140;2022-08-19T08:57:09;11.87;;;10.77;;
11960;SDS011;6040;49.358;11.140;2022-08-19T08:59:39;12.80;;;10.53;;
11960;SDS011;6040;49.358;11.140;2022-08-19T09:02:08;13.10;;;11.37;;
11960;SDS011;6040;49.358;11.140;2022-08-19T09:04:35;11.77;;;10.67;;
11960;SDS011;6040;49.358;11.140;2022-08-19T09:07:16;11.50;;;10.40;;
11960;SDS011;6040;49.358;11.140;2022-08-19T09:09:54;12.87;;;11.60;;
11960;SDS011;6040;49.358;11.140;2022-08-19T09:12:31;12.27;;;11.07;;
11960;SDS011;6040;49.358;11.140;2022-08-19T09:15:04;12.87;;;11.63;;
11960;SDS011;6040;49.358;11.140;2022-08-19T09:17:34;13.20;;;10.30;;
11960;SDS011;6040;49.358;11.140;2022-08-19T09:20:06;11.30;;;10.20;;
11960;SDS011;6040;49.358;11.140;2022-08-19T09:22:44;11.97;;;10.70;;
11960;SDS011;6040;49.358;11.140;2022-08-19T09:25:16;10.90;;;9.80;;
11960;SDS011;6040;49.358;11.140;2022-08-19T09:27:46;10.30;;;9.23;;
11960;SDS011;6040;49.358;11.140;2022-08-19T09:30:15;11.17;;;10.07;;
11960;SDS011;6040;49.358;11.140;2022-08-19T09:32:43;11.83;;;10.63;;
11960;SDS011;6040;49.358;11.140;2022-08-19T09:35:11;11.50;;;10.40;;
11960;SDS011;6040;49.358;11.140;2022-08-19T09:37:39;11.67;;;10.47;;
11960;SDS011;6040;49.358;11.140;2022-08-19T09:40:06;11.63;;;10.50;;
11960;SDS011;6040;49.358;11.140;2022-08-19T09:42:35;13.30;;;12.00;;
11960;SDS011;6040;49.358;11.140;2022-08-19T09:45:02;14.10;;;12.57;;
11960;SDS011;6040;49.358;11.140;2022-08-19T09:47:30;14.90;;;13.13;;
11960;SDS011;6040;49.358;11.140;2022-08-19T09:49:57;15.80;;;13.73;;
11960;SDS011;6040;49.358;11.140;2022-08-19T09:52:24;16.83;;;14.60;;
11960;SDS011;6040;49.358;11.140;2022-08-19T09:54:51;17.60;;;15.50;;
11960;SDS011;6040;49.358;11.140;2022-08-19T09:57:19;20.10;;;18.07;;
11960;SDS011;6040;49.358;11.140;2022-08-19T09:59:47;20.30;;;18.23;;
11960;SDS011;6040;49.358;11.140;2022-08-19T10:02:14;21.40;;;19.20;;
11960;SDS011;6040;49.358;11.140;2022-08-19T10:04:41;19.13;;;17.23;;
11960;SDS011;6040;49.358;11.140;2022-08-19T10:07:25;20.43;;;17.63;;
11960;SDS011;6040;49.358;11.140;2022-08-19T10:09:52;18.90;;;16.73;;
11960;SDS011;6040;49.358;11.140;2022-08-19T10:12:19;18.90;;;17.00;;
11960;SDS011;6040;49.358;11.140;2022-08-19T10:14:48;18.47;;;16.57;;
11960;SDS011;6040;49.358;11.140;2022-08-19T10:17:16;22.37;;;17.90;;
11960;SDS011;6040;49.358;11.140;2022-08-19T10:19:43;19.40;;;17.10;;
11960;SDS011;6040;49.358;11.140;2022-08-19T10:22:10;19.57;;;17.10;;
11960;SDS011;6040;49.358;11.140;2022-08-19T10:24:39;18.33;;;16.13;;
11960;SDS011;6040;49.358;11.140;2022-08-19T10:27:06;17.70;;;15.90;;
11960;SDS011;6040;49.358;11.140;2022-08-19T10:29:34;18.17;;;16.37;;
11960;SDS011;6040;49.358;11.140;2022-08-19T10:32:04;18.80;;;16.33;;
11960;SDS011;6040;49.358;11.140;2022-08-19T10:34:33;18.33;;;16.53;;
11960;SDS011;6040;49.358;11.140;2022-08-19T10:37:02;18.07;;;16.27;;
11960;SDS011;6040;49.358;11.140;2022-08-19T10:39:31;18.87;;;16.87;;
11960;SDS011;6040;49.358;11.140;2022-08-19T10:42:03;17.23;;;15.43;;
11960;SDS011;6040;49.358;11.140;2022-08-19T10:44:31;17.27;;;15.57;;
11960;SDS011;6040;49.358;11.140;2022-08-19T10:47:00;17.63;;;15.63;;
11960;SDS011;6040;49.358;11.140;2022-08-19T10:49:29;19.30;;;16.33;;
11960;SDS011;6040;49.358;11.140;2022-08-19T10:51:57;18.87;;;16.87;;
11960;SDS011;6040;49.358;11.140;2022-08-19T10:54:41;16.97;;;15.13;;
11960;SDS011;6040;49.358;11.140;2022-08-19T10:57:25;18.90;;;16.47;;
11960;SDS011;6040;49.358;11.140;2022-08-19T10:59:56;19.17;;;17.27;;
11960;SDS011;6040;49.358;11.140;2022-08-19T11:02:25;20.67;;;17.00;;
11960;SDS011;6040;49.358;11.140;2022-08-19T11:04:51;19.07;;;16.90;;
11960;SDS011;6040;49.358;11.140;2022-08-19T11:07:18;17.83;;;15.93;;
11960;SDS011;6040;49.358;11.140;2022-08-19T11:09:46;18.70;;;16.70;;
11960;SDS011;6040;49.358;11.140;2022-08-19T11:12:13;19.83;;;17.60;;
11960;SDS011;6040;49.358;11.140;2022-08-19T11:14:40;20.27;;;18.13;;
11960;SDS011;6040;49.358;11.140;2022-08-19T11:17:07;19.63;;;16.47;;
11960;SDS011;6040;49.358;11.140;2022-08-19T11:19:37;20.53;;;18.43;;
11960;SDS011;6040;49.358;11.140;2022-08-19T11:22:04;19.53;;;17.47;;
11960;SDS011;6040;49.358;11.140;2022-08-19T11:24:34;20.03;;;17.50;;
11960;SDS011;6040;49.358;11.140;2022-08-19T11:27:03;20.53;;;17.80;;
11960;SDS011;6040;49.358;11.140;2022-08-19T11:29:32;19.33;;;17.33;;
11960;SDS011;6040;49.358;11.140;2022-08-19T11:32:00;19.87;;;17.13;;
11960;SDS011;6040;49.358;11.140;2022-08-19T11:34:30;21.40;;;18.70;;
11960;SDS011;6040;49.358;11.140;2022-08-19T11:36:59;20.47;;;18.07;;
11960;SDS011;6040;49.358;11.140;2022-08-19T11:39:27;21.77;;;17.33;;
11960;SDS011;6040;49.358;11.140;2022-08-19T11:41:57;22.97;;;19.03;;
11960;SDS011;6040;49.358;11.140;2022-08-19T11:44:25;24.37;;;20.33;;
11960;SDS011;6040;49.358;11.140;2022-08-19T11:46:55;22.50;;;20.00;;
11960;SDS011;6040;49.358;11.140;2022-08-19T11:49:22;23.57;;;19.40;;
11960;SDS011;6040;49.358;11.140;2022-08-19T11:51:49;23.27;;;20.13;;
11960;SDS011;6040;49.358;11.140;2022-08-19T11:54:17;25.00;;;20.40;;
11960;SDS011;6040;49.358;11.140;2022-08-19T11:56:44;22.30;;;19.90;;
11960;SDS011;6040;49.358;11.140;2022-08-19T11:59:13;23.33;;;20.83;;
11960;SDS011;6040;49.358;11.140;2022-08-19T12:01:40;26.03;;;20.77;;
11960;SDS011;6040;49.358;11.140;2022-08-19T12:04:08;24.87;;;20.57;;
11960;SDS011;6040;49.358;11.140;2022-08-19T12:06:36;27.30;;;21.67;;
11960;SDS011;6040;49.358;11.140;2022-08-19T12:09:07;24.97;;;21.27;;
11960;SDS011;6040;49.358;11.140;2022-08-19T12:11:37;25.10;;;21.83;;
11960;SDS011;6040;49.358;11.140;2022-08-19T12:14:05;26.47;;;22.57;;
11960;SDS011;6040;49.358;11.140;2022-08-19T12:16:34;26.50;;;20.87;;
11960;SDS011;6040;49.358;11.140;2022-08-19T12:19:03;24.23;;;20.63;;
11960;SDS011;6040;49.358;11.140;2022-08-19T12:21:31;22.33;;;19.93;;
11960;SDS011;6040;49.358;11.140;2022-08-19T12:24:00;22.93;;;19.60;;
11960;SDS011;6040;49.358;11.140;2022-08-19T12:26:28;24.67;;;19.70;;
11960;SDS011;6040;49.358;11.140;2022-08-19T12:28:58;23.83;;;20.93;;
11960;SDS011;6040;49.358;11.140;2022-08-19T12:31:25;22.90;;;20.33;;
11960;SDS011;6040;49.358;11.140;2022-08-19T12:33:53;23.03;;;20.57;;
11960;SDS011;6040;49.358;11.140;2022-08-19T12:36:20;24.73;;;20.73;;
11960;SDS011;6040;49.358;11.140;2022-08-19T12:38:48;23.37;;;20.90;;
11960;SDS011;6040;49.358;11.140;2022-08-19T12:41:15;23.10;;;20.60;;
11960;SDS011;6040;49.358;11.140;2022-08-19T12:43:43;22.80;;;19.93;;
11960;SDS011;6040;49.358;11.140;2022-08-19T12:46:12;23.13;;;20.73;;
11960;SDS011;6040;49.358;11.140;2022-08-19T12:48:39;23.13;;;19.80;;
11960;SDS011;6040;49.358;11.140;2022-08-19T12:51:08;21.80;;;19.43;;
11960;SDS011;6040;49.358;11.140;2022-08-19T12:53:38;21.90;;;19.60;;
11960;SDS011;6040;49.358;11.140;2022-08-19T12:56:05;22.17;;;19.83;;
11960;SDS011;6040;49.358;11.140;2022-08-19T12:58:33;26.47;;;21.67;;
11960;SDS011;6040;49.358;11.140;2022-08-19T13:01:05;22.33;;;19.87;;
11960;SDS011;6040;49.358;11.140;2022-08-19T13:03:35;22.53;;;20.07;;
11960;SDS011;6040;49.358;11.140;2022-08-19T13:06:02;21.77;;;19.33;;
11960;SDS011;6040;49.358;11.140;2022-08-19T13:08:29;19.20;;;16.73;;
11960;SDS011;6040;49.358;11.140;2022-08-19T13:10:57;21.23;;;18.90;;
11960;SDS011;6040;49.358;11.140;2022-08-19T13:13:24;21.33;;;19.07;;
11960;SDS011;6040;49.358;11.140;2022-08-19T13:15:51;20.43;;;18.33;;
11960;SDS011;6040;49.358;11.140;2022-08-19T13:18:18;21.97;;;19.47;;
11960;SDS011;6040;49.358;11.140;2022-08-19T13:20:47;22.03;;;19.53;;
11960;SDS011;6040;49.358;11.140;2022-08-19T13:23:13;22.17;;;19.43;;
11960;SDS011;6040;49.358;11.140;2022-08-19T13:25:40;21.83;;;19.53;;
11960;SDS011;6040;49.358;11.140;2022-08-19T13:28:07;21.57;;;19.33;;
11960;SDS011;6040;49.358;11.140;2022-08-19T13:30:34;20.20;;;18.03;;
11960;SDS011;6040;49.358;11.140;2022-08-19T13:33:18;23.87;;;20.60;;
11960;SDS011;6040;49.358;11.140;2022-08-19T13:35:48;20.70;;;18.50;;
11960;SDS011;6040;49.358;11.140;2022-08-19T13:38:22;21.60;;;19.33;;
11960;SDS011;6040;49.358;11.140;2022-08-19T13:40:50;21.40;;;19.20;;
11960;SDS011;6040;49.358;11.140;2022-08-19T13:43:19;20.83;;;18.63;;
11960;SDS011;6040;49.358;11.140;2022-08-19T13:45:47;23.47;;;20.97;;
11960;SDS011;6040;49.358;11.140;2022-08-19T13:48:14;22.37;;;19.97;;
11960;SDS011;6040;49.358;11.140;2022-08-19T13:50:42;20.63;;;18.53;;
11960;SDS011;6040;49.358;11.140;2022-08-19T13:53:13;23.13;;;20.47;;
11960;SDS011;6040;49.358;11.140;2022-08-19T13:55:41;21.10;;;18.90;;
11960;SDS011;6040;49.358;11.140;2022-08-19T13:58:10;23.17;;;20.23;;
11960;SDS011;6040;49.358;11.140;2022-08-19T14:00:38;22.40;;;20.00;;
11960;SDS011;6040;49.358;11.140;2022-08-19T14:03:07;23.03;;;20.63;;
11960;SDS011;6040;49.358;11.140;2022-08-19T14:05:34;21.90;;;19.70;;
11960;SDS011;6040;49.358;11.140;2022-08-19T14:08:02;22.17;;;19.87;;
11960;SDS011;6040;49.358;11.140;2022-08-19T14:10:31;23.67;;;21.17;;
11960;SDS011;6040;49.358;11.140;2022-08-19T14:13:00;22.10;;;19.93;;
11960;SDS011;6040;49.358;11.140;2022-08-19T14:15:28;22.43;;;20.20;;
11960;SDS011;6040;49.358;11.140;2022-08-19T14:17:56;20.57;;;18.47;;
11960;SDS011;6040;49.358;11.140;2022-08-19T14:20:23;23.27;;;21.08;;
11960;SDS011;6040;49.358;11.140;2022-08-19T14:22:50;22.27;;;20.03;;
11960;SDS011;6040;49.358;11.140;2022-08-19T14:25:18;19.47;;;17.37;;
11960;SDS011;6040;49.358;11.140;2022-08-19T14:27:48;18.33;;;16.57;;
11960;SDS011;6040;49.358;11.140;2022-08-19T14:30:16;17.87;;;16.07;;